sensor_id;sensor_type;location;lat;lon;timestamp;P1;durP1;ratioP1;P2;durP2;ratioP2
74974;SDS011;68459;50.836;19.138;2023-03-15T00:00:51;1.63;;;0.60;;
74974;SDS011;68459;50.836;19.138;2023-03-15T00:03:56;3.03;;;0.68;;
74974;SDS011;68459;50.836;19.138;2023-03-15T00:07:00;2.25;;;0.52;;
74974;SDS011;68459;50.836;19.138;2023-03-15T00:10:04;1.65;;;0.70;;
74974;SDS011;68459;50.836;19.138;2023-03-15T00:13:13;1.45;;;0.60;;
74974;SDS011;68459;50.836;19.138;2023-03-15T00:16:29;2.58;;;0.60;;
74974;SDS011;68459;50.836;19.138;2023-03-15T00:19:34;1.50;;;0.75;;
74974;SDS011;68459;50.836;19.138;2023-03-15T00:22:37;3.13;;;0.80;;
74974;SDS011;68459;50.836;19.138;2023-03-15T00:25:42;1.25;;;0.50;;
74974;SDS011;68459;50.836;19.138;2023-03-15T00:28:48;2.00;;;0.63;;
74974;SDS011;68459;50.836;19.138;2023-03-15T00:31:52;1.27;;;0.67;;
74974;SDS011;68459;50.836;19.138;2023-03-15T00:34:59;1.50;;;0.75;;
74974;SDS011;68459;50.836;19.138;2023-03-15T00:38:03;2.13;;;0.80;;
74974;SDS011;68459;50.836;19.138;2023-03-15T00:41:07;2.65;;;0.70;;
74974;SDS011;68459;50.836;19.138;2023-03-15T00:44:16;2.97;;;0.88;;
74974;SDS011;68459;50.836;19.138;2023-03-15T00:47:20;1.85;;;0.80;;
74974;SDS011;68459;50.836;19.138;2023-03-15T00:50:24;2.42;;;0.63;;
74974;SDS011;68459;50.836;19.138;2023-03-15T00:53:29;2.40;;;0.90;;
74974;SDS011;68459;50.836;19.138;2023-03-15T00:56:34;2.08;;;1.20;;
74974;SDS011;68459;50.836;19.138;2023-03-15T00:59:40;2.28;;;1.10;;
74974;SDS011;68459;50.836;19.138;2023-03-15T01:02:46;2.17;;;1.00;;
74974;SDS011;68459;50.836;19.138;2023-03-15T01:05:50;3.08;;;1.30;;
74974;SDS011;68459;50.836;19.138;2023-03-15T01:08:55;2.38;;;1.20;;
74974;SDS011;68459;50.836;19.138;2023-03-15T01:11:59;2.00;;;1.20;;
74974;SDS011;68459;50.836;19.138;2023-03-15T01:15:07;5.95;;;1.48;;
74974;SDS011;68459;50.836;19.138;2023-03-15T01:18:15;2.50;;;1.40;;
74974;SDS011;68459;50.836;19.138;2023-03-15T01:21:19;3.10;;;1.50;;
74974;SDS011;68459;50.836;19.138;2023-03-15T01:24:25;9.30;;;1.87;;
74974;SDS011;68459;50.836;19.138;2023-03-15T01:27:29;3.50;;;2.00;;
74974;SDS011;68459;50.836;19.138;2023-03-15T01:30:34;5.88;;;1.50;;
74974;SDS011;68459;50.836;19.138;2023-03-15T01:33:38;3.60;;;1.50;;
74974;SDS011;68459;50.836;19.138;2023-03-15T01:36:42;4.88;;;1.98;;
74974;SDS011;68459;50.836;19.138;2023-03-15T01:39:47;4.57;;;2.22;;
74974;SDS011;68459;50.836;19.138;2023-03-15T01:42:52;4.53;;;1.95;;
74974;SDS011;68459;50.836;19.138;2023-03-15T01:46:19;3.63;;;1.60;;
74974;SDS011;68459;50.836;19.138;2023-03-15T01:49:32;3.53;;;1.90;;
74974;SDS011;68459;50.836;19.138;2023-03-15T01:52:38;5.18;;;2.00;;
74974;SDS011;68459;50.836;19.138;2023-03-15T01:55:51;4.77;;;1.80;;
74974;SDS011;68459;50.836;19.138;2023-03-15T01:59:05;4.32;;;1.90;;
74974;SDS011;68459;50.836;19.138;2023-03-15T02:02:19;4.10;;;1.30;;
74974;SDS011;68459;50.836;19.138;2023-03-15T02:05:27;5.90;;;1.43;;
74974;SDS011;68459;50.836;19.138;2023-03-15T02:08:40;7.28;;;1.70;;
74974;SDS011;68459;50.836;19.138;2023-03-15T02:11:53;4.85;;;1.30;;
74974;SDS011;68459;50.836;19.138;2023-03-15T02:15:00;4.72;;;1.83;;
74974;SDS011;68459;50.836;19.138;2023-03-15T02:18:11;2.95;;;1.50;;
74974;SDS011;68459;50.836;19.138;2023-03-15T02:21:19;6.97;;;1.48;;
74974;SDS011;68459;50.836;19.138;2023-03-15T02:24:39;3.65;;;1.20;;
74974;SDS011;68459;50.836;19.138;2023-03-15T02:28:01;3.03;;;1.10;;
74974;SDS011;68459;50.836;19.138;2023-03-15T02:31:08;4.28;;;1.35;;
74974;SDS011;68459;50.836;19.138;2023-03-15T02:34:13;4.50;;;1.27;;
74974;SDS011;68459;50.836;19.138;2023-03-15T02:37:17;4.33;;;1.33;;
74974;SDS011;68459;50.836;19.138;2023-03-15T02:40:23;9.43;;;1.88;;
74974;SDS011;68459;50.836;19.138;2023-03-15T02:43:31;6.05;;;1.50;;
74974;SDS011;68459;50.836;19.138;2023-03-15T02:46:37;4.25;;;1.40;;
74974;SDS011;68459;50.836;19.138;2023-03-15T02:49:42;4.50;;;1.40;;
74974;SDS011;68459;50.836;19.138;2023-03-15T02:52:51;5.30;;;1.23;;
74974;SDS011;68459;50.836;19.138;2023-03-15T02:55:56;2.85;;;1.10;;
74974;SDS011;68459;50.836;19.138;2023-03-15T02:59:03;6.63;;;1.57;;
74974;SDS011;68459;50.836;19.138;2023-03-15T03:02:08;4.40;;;1.40;;
74974;SDS011;68459;50.836;19.138;2023-03-15T03:05:15;5.40;;;1.45;;
74974;SDS011;68459;50.836;19.138;2023-03-15T03:08:20;5.63;;;1.57;;
74974;SDS011;68459;50.836;19.138;2023-03-15T03:11:24;4.88;;;1.48;;
74974;SDS011;68459;50.836;19.138;2023-03-15T03:14:32;4.40;;;1.85;;
74974;SDS011;68459;50.836;19.138;2023-03-15T03:17:37;6.10;;;1.33;;
74974;SDS011;68459;50.836;19.138;2023-03-15T03:20:41;2.63;;;1.58;;
74974;SDS011;68459;50.836;19.138;2023-03-15T03:23:47;3.55;;;1.60;;
74974;SDS011;68459;50.836;19.138;2023-03-15T03:26:51;2.92;;;1.52;;
74974;SDS011;68459;50.836;19.138;2023-03-15T03:30:03;4.63;;;1.67;;
74974;SDS011;68459;50.836;19.138;2023-03-15T03:33:12;4.75;;;1.30;;
74974;SDS011;68459;50.836;19.138;2023-03-15T03:36:16;10.52;;;1.85;;
74974;SDS011;68459;50.836;19.138;2023-03-15T03:39:21;8.60;;;2.00;;
74974;SDS011;68459;50.836;19.138;2023-03-15T03:42:25;3.92;;;1.75;;
74974;SDS011;68459;50.836;19.138;2023-03-15T03:45:30;6.18;;;1.70;;
74974;SDS011;68459;50.836;19.138;2023-03-15T03:48:34;4.25;;;2.13;;
74974;SDS011;68459;50.836;19.138;2023-03-15T03:51:40;4.70;;;1.42;;
74974;SDS011;68459;50.836;19.138;2023-03-15T03:54:44;2.95;;;1.60;;
74974;SDS011;68459;50.836;19.138;2023-03-15T03:57:49;4.70;;;1.55;;
74974;SDS011;68459;50.836;19.138;2023-03-15T04:01:10;4.67;;;1.87;;
74974;SDS011;68459;50.836;19.138;2023-03-15T04:04:14;8.00;;;2.08;;
74974;SDS011;68459;50.836;19.138;2023-03-15T04:07:19;4.40;;;1.80;;
74974;SDS011;68459;50.836;19.138;2023-03-15T04:10:24;3.47;;;2.17;;
74974;SDS011;68459;50.836;19.138;2023-03-15T04:13:29;4.88;;;1.65;;
74974;SDS011;68459;50.836;19.138;2023-03-15T04:16:37;4.53;;;1.90;;
74974;SDS011;68459;50.836;19.138;2023-03-15T04:19:43;5.90;;;2.00;;
74974;SDS011;68459;50.836;19.138;2023-03-15T04:22:51;6.75;;;1.95;;
74974;SDS011;68459;50.836;19.138;2023-03-15T04:26:18;6.53;;;2.17;;
74974;SDS011;68459;50.836;19.138;2023-03-15T04:29:43;3.92;;;1.80;;
74974;SDS011;68459;50.836;19.138;2023-03-15T04:33:15;4.17;;;1.50;;
74974;SDS011;68459;50.836;19.138;2023-03-15T04:36:30;5.55;;;1.90;;
74974;SDS011;68459;50.836;19.138;2023-03-15T04:39:52;7.82;;;1.92;;
74974;SDS011;68459;50.836;19.138;2023-03-15T04:43:19;4.37;;;2.27;;
74974;SDS011;68459;50.836;19.138;2023-03-15T04:46:51;6.10;;;2.47;;
74974;SDS011;68459;50.836;19.138;2023-03-15T04:50:23;4.50;;;1.85;;
74974;SDS011;68459;50.836;19.138;2023-03-15T04:53:39;4.22;;;2.38;;
74974;SDS011;68459;50.836;19.138;2023-03-15T04:57:09;7.00;;;1.90;;
74974;SDS011;68459;50.836;19.138;2023-03-15T05:00:32;4.30;;;1.98;;
74974;SDS011;68459;50.836;19.138;2023-03-15T05:03:42;4.05;;;1.73;;
74974;SDS011;68459;50.836;19.138;2023-03-15T05:07:00;8.97;;;2.33;;
74974;SDS011;68459;50.836;19.138;2023-03-15T05:10:30;5.32;;;1.85;;
74974;SDS011;68459;50.836;19.138;2023-03-15T05:14:03;6.18;;;1.80;;
74974;SDS011;68459;50.836;19.138;2023-03-15T05:17:29;6.30;;;2.33;;
74974;SDS011;68459;50.836;19.138;2023-03-15T05:20:46;6.95;;;2.33;;
74974;SDS011;68459;50.836;19.138;2023-03-15T05:24:05;5.25;;;1.95;;
74974;SDS011;68459;50.836;19.138;2023-03-15T05:27:23;10.52;;;1.80;;
74974;SDS011;68459;50.836;19.138;2023-03-15T05:30:38;7.03;;;2.15;;
74974;SDS011;68459;50.836;19.138;2023-03-15T05:33:56;8.52;;;2.25;;
74974;SDS011;68459;50.836;19.138;2023-03-15T05:37:18;12.98;;;2.70;;
74974;SDS011;68459;50.836;19.138;2023-03-15T05:41:03;7.67;;;2.60;;
74974;SDS011;68459;50.836;19.138;2023-03-15T05:44:33;5.57;;;2.13;;
74974;SDS011;68459;50.836;19.138;2023-03-15T05:47:55;4.05;;;1.80;;
74974;SDS011;68459;50.836;19.138;2023-03-15T05:51:22;5.73;;;1.60;;
74974;SDS011;68459;50.836;19.138;2023-03-15T05:54:55;10.75;;;2.05;;
74974;SDS011;68459;50.836;19.138;2023-03-15T05:58:19;6.50;;;1.90;;
74974;SDS011;68459;50.836;19.138;2023-03-15T06:01:41;5.50;;;1.73;;
74974;SDS011;68459;50.836;19.138;2023-03-15T06:04:53;4.25;;;1.63;;
74974;SDS011;68459;50.836;19.138;2023-03-15T06:08:00;6.40;;;2.10;;
74974;SDS011;68459;50.836;19.138;2023-03-15T06:11:04;4.32;;;1.60;;
74974;SDS011;68459;50.836;19.138;2023-03-15T06:14:11;6.53;;;1.67;;
74974;SDS011;68459;50.836;19.138;2023-03-15T06:17:24;5.90;;;1.52;;
74974;SDS011;68459;50.836;19.138;2023-03-15T06:20:28;9.15;;;2.20;;
74974;SDS011;68459;50.836;19.138;2023-03-15T06:23:38;8.87;;;2.20;;
74974;SDS011;68459;50.836;19.138;2023-03-15T06:26:43;4.97;;;1.67;;
74974;SDS011;68459;50.836;19.138;2023-03-15T06:29:48;9.48;;;1.80;;
74974;SDS011;68459;50.836;19.138;2023-03-15T06:32:55;6.78;;;2.10;;
74974;SDS011;68459;50.836;19.138;2023-03-15T06:35:59;5.60;;;2.00;;
74974;SDS011;68459;50.836;19.138;2023-03-15T06:39:03;4.97;;;1.42;;
74974;SDS011;68459;50.836;19.138;2023-03-15T06:42:08;7.50;;;2.00;;
74974;SDS011;68459;50.836;19.138;2023-03-15T06:45:16;6.10;;;1.37;;
74974;SDS011;68459;50.836;19.138;2023-03-15T06:48:21;5.15;;;1.30;;
74974;SDS011;68459;50.836;19.138;2023-03-15T06:51:25;5.13;;;1.40;;
74974;SDS011;68459;50.836;19.138;2023-03-15T06:54:29;6.77;;;1.50;;
74974;SDS011;68459;50.836;19.138;2023-03-15T06:57:33;2.80;;;1.17;;
74974;SDS011;68459;50.836;19.138;2023-03-15T07:00:38;5.85;;;1.45;;
74974;SDS011;68459;50.836;19.138;2023-03-15T07:03:42;4.43;;;1.40;;
74974;SDS011;68459;50.836;19.138;2023-03-15T07:06:46;7.47;;;1.52;;
74974;SDS011;68459;50.836;19.138;2023-03-15T07:09:50;7.15;;;1.63;;
74974;SDS011;68459;50.836;19.138;2023-03-15T07:12:56;4.55;;;1.42;;
74974;SDS011;68459;50.836;19.138;2023-03-15T07:16:01;6.80;;;1.37;;
74974;SDS011;68459;50.836;19.138;2023-03-15T07:19:06;6.55;;;1.98;;
74974;SDS011;68459;50.836;19.138;2023-03-15T07:22:10;4.75;;;1.48;;
74974;SDS011;68459;50.836;19.138;2023-03-15T07:25:14;6.00;;;1.60;;
74974;SDS011;68459;50.836;19.138;2023-03-15T07:28:24;7.32;;;1.70;;
74974;SDS011;68459;50.836;19.138;2023-03-15T07:31:31;8.35;;;1.80;;
74974;SDS011;68459;50.836;19.138;2023-03-15T07:34:35;5.90;;;1.40;;
74974;SDS011;68459;50.836;19.138;2023-03-15T07:37:38;7.47;;;1.60;;
74974;SDS011;68459;50.836;19.138;2023-03-15T07:40:45;5.88;;;1.52;;
74974;SDS011;68459;50.836;19.138;2023-03-15T07:43:49;5.50;;;1.80;;
74974;SDS011;68459;50.836;19.138;2023-03-15T07:46:54;9.23;;;1.70;;
74974;SDS011;68459;50.836;19.138;2023-03-15T07:49:59;6.20;;;1.60;;
74974;SDS011;68459;50.836;19.138;2023-03-15T07:53:02;7.60;;;1.30;;
74974;SDS011;68459;50.836;19.138;2023-03-15T07:56:08;4.27;;;1.20;;
74974;SDS011;68459;50.836;19.138;2023-03-15T07:59:11;7.20;;;1.70;;
74974;SDS011;68459;50.836;19.138;2023-03-15T08:02:18;7.25;;;1.73;;
74974;SDS011;68459;50.836;19.138;2023-03-15T08:05:21;7.82;;;1.55;;
74974;SDS011;68459;50.836;19.138;2023-03-15T08:08:28;5.00;;;1.20;;
74974;SDS011;68459;50.836;19.138;2023-03-15T08:11:32;7.45;;;1.60;;
74974;SDS011;68459;50.836;19.138;2023-03-15T08:14:37;7.22;;;1.70;;
74974;SDS011;68459;50.836;19.138;2023-03-15T08:17:42;10.90;;;1.47;;
74974;SDS011;68459;50.836;19.138;2023-03-15T08:20:46;8.18;;;1.30;;
74974;SDS011;68459;50.836;19.138;2023-03-15T08:23:50;4.45;;;1.23;;
74974;SDS011;68459;50.836;19.138;2023-03-15T08:26:54;8.17;;;2.37;;
74974;SDS011;68459;50.836;19.138;2023-03-15T08:29:58;7.43;;;1.65;;
74974;SDS011;68459;50.836;19.138;2023-03-15T08:33:03;5.95;;;1.40;;
74974;SDS011;68459;50.836;19.138;2023-03-15T08:36:08;6.60;;;1.85;;
74974;SDS011;68459;50.836;19.138;2023-03-15T08:39:12;5.00;;;1.48;;
74974;SDS011;68459;50.836;19.138;2023-03-15T08:42:16;5.63;;;1.27;;
74974;SDS011;68459;50.836;19.138;2023-03-15T08:45:21;4.95;;;1.40;;
74974;SDS011;68459;50.836;19.138;2023-03-15T08:48:27;5.37;;;1.13;;
74974;SDS011;68459;50.836;19.138;2023-03-15T08:51:32;2.80;;;0.88;;
74974;SDS011;68459;50.836;19.138;2023-03-15T08:54:36;5.85;;;1.65;;
74974;SDS011;68459;50.836;19.138;2023-03-15T08:57:41;4.40;;;1.40;;
74974;SDS011;68459;50.836;19.138;2023-03-15T09:00:45;7.10;;;2.47;;
74974;SDS011;68459;50.836;19.138;2023-03-15T09:03:53;7.22;;;1.83;;
74974;SDS011;68459;50.836;19.138;2023-03-15T09:06:57;8.13;;;1.55;;
74974;SDS011;68459;50.836;19.138;2023-03-15T09:10:01;5.18;;;1.50;;
74974;SDS011;68459;50.836;19.138;2023-03-15T09:13:06;4.15;;;1.13;;
74974;SDS011;68459;50.836;19.138;2023-03-15T09:16:10;6.45;;;1.02;;
74974;SDS011;68459;50.836;19.138;2023-03-15T09:19:15;5.60;;;1.03;;
74974;SDS011;68459;50.836;19.138;2023-03-15T09:22:19;6.18;;;0.95;;
74974;SDS011;68459;50.836;19.138;2023-03-15T09:25:40;4.40;;;1.00;;
74974;SDS011;68459;50.836;19.138;2023-03-15T09:28:44;3.77;;;1.30;;
74974;SDS011;68459;50.836;19.138;2023-03-15T09:31:47;3.90;;;0.90;;
74974;SDS011;68459;50.836;19.138;2023-03-15T09:34:53;4.60;;;1.30;;
74974;SDS011;68459;50.836;19.138;2023-03-15T09:37:56;4.30;;;0.80;;
74974;SDS011;68459;50.836;19.138;2023-03-15T09:41:00;2.92;;;0.80;;
74974;SDS011;68459;50.836;19.138;2023-03-15T09:44:08;4.28;;;0.95;;
74974;SDS011;68459;50.836;19.138;2023-03-15T09:47:26;2.35;;;0.57;;
74974;SDS011;68459;50.836;19.138;2023-03-15T09:50:44;5.83;;;1.13;;
74974;SDS011;68459;50.836;19.138;2023-03-15T09:53:54;3.35;;;0.88;;
74974;SDS011;68459;50.836;19.138;2023-03-15T09:57:07;5.40;;;1.20;;
74974;SDS011;68459;50.836;19.138;2023-03-15T10:00:22;5.07;;;0.93;;
74974;SDS011;68459;50.836;19.138;2023-03-15T10:03:37;5.10;;;1.20;;
74974;SDS011;68459;50.836;19.138;2023-03-15T10:06:52;5.90;;;1.50;;
74974;SDS011;68459;50.836;19.138;2023-03-15T10:09:59;5.97;;;1.58;;
74974;SDS011;68459;50.836;19.138;2023-03-15T10:13:08;5.47;;;1.40;;
74974;SDS011;68459;50.836;19.138;2023-03-15T10:16:38;5.45;;;1.67;;
74974;SDS011;68459;50.836;19.138;2023-03-15T10:19:47;7.38;;;1.55;;
74974;SDS011;68459;50.836;19.138;2023-03-15T10:22:55;3.43;;;0.80;;
74974;SDS011;68459;50.836;19.138;2023-03-15T10:26:03;4.68;;;0.98;;
74974;SDS011;68459;50.836;19.138;2023-03-15T10:29:15;6.22;;;1.00;;
74974;SDS011;68459;50.836;19.138;2023-03-15T10:32:24;3.17;;;0.93;;
74974;SDS011;68459;50.836;19.138;2023-03-15T10:35:33;3.38;;;0.70;;
74974;SDS011;68459;50.836;19.138;2023-03-15T10:38:38;2.58;;;0.93;;
74974;SDS011;68459;50.836;19.138;2023-03-15T10:41:44;6.07;;;1.15;;
74974;SDS011;68459;50.836;19.138;2023-03-15T10:44:49;7.05;;;1.10;;
74974;SDS011;68459;50.836;19.138;2023-03-15T10:47:53;2.60;;;1.10;;
74974;SDS011;68459;50.836;19.138;2023-03-15T10:51:03;4.03;;;1.00;;
74974;SDS011;68459;50.836;19.138;2023-03-15T10:54:15;3.77;;;1.20;;
74974;SDS011;68459;50.836;19.138;2023-03-15T10:57:22;4.28;;;1.25;;
74974;SDS011;68459;50.836;19.138;2023-03-15T11:00:35;6.50;;;1.48;;
74974;SDS011;68459;50.836;19.138;2023-03-15T11:03:39;4.00;;;1.40;;
74974;SDS011;68459;50.836;19.138;2023-03-15T11:06:46;3.65;;;1.27;;
74974;SDS011;68459;50.836;19.138;2023-03-15T11:09:59;4.03;;;1.27;;
74974;SDS011;68459;50.836;19.138;2023-03-15T11:13:08;4.38;;;1.23;;
74974;SDS011;68459;50.836;19.138;2023-03-15T11:16:18;4.80;;;1.40;;
74974;SDS011;68459;50.836;19.138;2023-03-15T11:19:25;3.63;;;1.05;;
74974;SDS011;68459;50.836;19.138;2023-03-15T11:22:32;4.63;;;1.05;;
74974;SDS011;68459;50.836;19.138;2023-03-15T11:25:37;5.70;;;1.50;;
74974;SDS011;68459;50.836;19.138;2023-03-15T11:28:42;3.63;;;1.05;;
74974;SDS011;68459;50.836;19.138;2023-03-15T11:31:53;5.05;;;1.20;;
74974;SDS011;68459;50.836;19.138;2023-03-15T11:35:01;3.90;;;1.40;;
74974;SDS011;68459;50.836;19.138;2023-03-15T11:38:09;3.72;;;1.23;;
74974;SDS011;68459;50.836;19.138;2023-03-15T11:41:23;4.40;;;1.27;;
74974;SDS011;68459;50.836;19.138;2023-03-15T11:44:37;6.68;;;1.45;;
74974;SDS011;68459;50.836;19.138;2023-03-15T11:47:49;6.70;;;1.20;;
74974;SDS011;68459;50.836;19.138;2023-03-15T11:50:58;5.10;;;1.30;;
74974;SDS011;68459;50.836;19.138;2023-03-15T11:54:05;5.10;;;1.35;;
74974;SDS011;68459;50.836;19.138;2023-03-15T11:57:37;5.03;;;1.30;;
74974;SDS011;68459;50.836;19.138;2023-03-15T12:00:49;7.13;;;1.33;;
74974;SDS011;68459;50.836;19.138;2023-03-15T12:07:56;4.47;;;1.07;;
74974;SDS011;68459;50.836;19.138;2023-03-15T12:11:05;3.83;;;1.27;;
74974;SDS011;68459;50.836;19.138;2023-03-15T12:14:24;6.25;;;1.38;;
74974;SDS011;68459;50.836;19.138;2023-03-15T12:17:35;4.32;;;1.55;;
74974;SDS011;68459;50.836;19.138;2023-03-15T12:20:56;7.35;;;1.88;;
74974;SDS011;68459;50.836;19.138;2023-03-15T12:24:13;2.95;;;0.90;;
74974;SDS011;68459;50.836;19.138;2023-03-15T12:27:25;3.40;;;1.50;;
74974;SDS011;68459;50.836;19.138;2023-03-15T12:30:35;5.30;;;1.30;;
74974;SDS011;68459;50.836;19.138;2023-03-15T12:33:46;5.38;;;1.45;;
74974;SDS011;68459;50.836;19.138;2023-03-15T12:36:54;6.22;;;1.30;;
74974;SDS011;68459;50.836;19.138;2023-03-15T12:44:04;4.30;;;1.30;;
74974;SDS011;68459;50.836;19.138;2023-03-15T12:47:27;3.47;;;1.27;;
74974;SDS011;68459;50.836;19.138;2023-03-15T12:50:49;5.72;;;1.23;;
74974;SDS011;68459;50.836;19.138;2023-03-15T12:53:57;3.80;;;1.02;;
74974;SDS011;68459;50.836;19.138;2023-03-15T12:57:04;5.25;;;1.70;;
74974;SDS011;68459;50.836;19.138;2023-03-15T13:00:14;5.07;;;1.13;;
74974;SDS011;68459;50.836;19.138;2023-03-15T13:03:24;7.00;;;1.17;;
74974;SDS011;68459;50.836;19.138;2023-03-15T13:06:39;6.28;;;1.40;;
74974;SDS011;68459;50.836;19.138;2023-03-15T13:10:02;5.07;;;1.38;;
74974;SDS011;68459;50.836;19.138;2023-03-15T13:13:35;4.20;;;1.30;;
74974;SDS011;68459;50.836;19.138;2023-03-15T13:17:16;5.00;;;1.40;;
74974;SDS011;68459;50.836;19.138;2023-03-15T13:20:41;4.80;;;1.20;;
74974;SDS011;68459;50.836;19.138;2023-03-15T13:23:56;4.70;;;1.33;;
74974;SDS011;68459;50.836;19.138;2023-03-15T13:27:02;2.75;;;1.30;;
74974;SDS011;68459;50.836;19.138;2023-03-15T13:30:23;5.38;;;1.20;;
74974;SDS011;68459;50.836;19.138;2023-03-15T13:33:36;5.38;;;1.02;;
74974;SDS011;68459;50.836;19.138;2023-03-15T13:36:44;4.20;;;1.07;;
74974;SDS011;68459;50.836;19.138;2023-03-15T13:39:52;4.70;;;1.10;;
74974;SDS011;68459;50.836;19.138;2023-03-15T13:42:59;4.38;;;1.08;;
74974;SDS011;68459;50.836;19.138;2023-03-15T13:46:04;3.60;;;1.17;;
74974;SDS011;68459;50.836;19.138;2023-03-15T13:49:09;5.18;;;1.38;;
74974;SDS011;68459;50.836;19.138;2023-03-15T13:52:16;4.70;;;1.27;;
74974;SDS011;68459;50.836;19.138;2023-03-15T13:55:21;4.57;;;1.25;;
74974;SDS011;68459;50.836;19.138;2023-03-15T13:58:27;6.60;;;1.30;;
74974;SDS011;68459;50.836;19.138;2023-03-15T14:01:32;7.18;;;1.70;;
74974;SDS011;68459;50.836;19.138;2023-03-15T14:04:43;6.53;;;1.23;;
74974;SDS011;68459;50.836;19.138;2023-03-15T14:07:56;6.87;;;1.47;;
74974;SDS011;68459;50.836;19.138;2023-03-15T14:11:05;5.40;;;1.40;;
74974;SDS011;68459;50.836;19.138;2023-03-15T14:14:17;3.92;;;1.00;;
74974;SDS011;68459;50.836;19.138;2023-03-15T14:17:27;3.33;;;1.20;;
74974;SDS011;68459;50.836;19.138;2023-03-15T14:20:34;4.25;;;1.27;;
74974;SDS011;68459;50.836;19.138;2023-03-15T14:23:45;4.68;;;1.27;;
74974;SDS011;68459;50.836;19.138;2023-03-15T14:26:51;5.45;;;1.40;;
74974;SDS011;68459;50.836;19.138;2023-03-15T14:29:59;10.80;;;1.75;;
74974;SDS011;68459;50.836;19.138;2023-03-15T14:33:05;3.83;;;0.98;;
74974;SDS011;68459;50.836;19.138;2023-03-15T14:36:20;8.40;;;1.70;;
74974;SDS011;68459;50.836;19.138;2023-03-15T14:39:29;7.03;;;2.63;;
74974;SDS011;68459;50.836;19.138;2023-03-15T14:42:40;5.70;;;1.40;;
74974;SDS011;68459;50.836;19.138;2023-03-15T14:45:45;6.50;;;1.77;;
74974;SDS011;68459;50.836;19.138;2023-03-15T14:48:50;4.10;;;1.20;;
74974;SDS011;68459;50.836;19.138;2023-03-15T14:51:56;4.78;;;1.33;;
74974;SDS011;68459;50.836;19.138;2023-03-15T14:55:07;5.05;;;1.40;;
74974;SDS011;68459;50.836;19.138;2023-03-15T14:58:16;4.63;;;1.60;;
74974;SDS011;68459;50.836;19.138;2023-03-15T15:01:22;5.20;;;1.30;;
74974;SDS011;68459;50.836;19.138;2023-03-15T15:04:31;5.05;;;1.50;;
74974;SDS011;68459;50.836;19.138;2023-03-15T15:07:38;3.15;;;0.90;;
74974;SDS011;68459;50.836;19.138;2023-03-15T15:10:44;4.37;;;1.33;;
74974;SDS011;68459;50.836;19.138;2023-03-15T15:13:50;4.53;;;1.38;;
74974;SDS011;68459;50.836;19.138;2023-03-15T15:16:55;5.40;;;1.20;;
74974;SDS011;68459;50.836;19.138;2023-03-15T15:19:59;8.17;;;1.10;;
74974;SDS011;68459;50.836;19.138;2023-03-15T15:23:02;3.08;;;0.80;;
74974;SDS011;68459;50.836;19.138;2023-03-15T15:26:11;2.67;;;0.93;;
74974;SDS011;68459;50.836;19.138;2023-03-15T15:29:20;2.50;;;0.88;;
74974;SDS011;68459;50.836;19.138;2023-03-15T15:32:25;3.35;;;0.90;;
74974;SDS011;68459;50.836;19.138;2023-03-15T15:35:28;3.08;;;0.80;;
74974;SDS011;68459;50.836;19.138;2023-03-15T15:38:32;5.78;;;1.50;;
74974;SDS011;68459;50.836;19.138;2023-03-15T15:41:41;5.13;;;1.10;;
74974;SDS011;68459;50.836;19.138;2023-03-15T15:44:45;3.72;;;1.13;;
74974;SDS011;68459;50.836;19.138;2023-03-15T15:47:48;4.72;;;0.82;;
74974;SDS011;68459;50.836;19.138;2023-03-15T15:50:53;4.60;;;1.10;;
74974;SDS011;68459;50.836;19.138;2023-03-15T15:53:57;3.13;;;0.82;;
74974;SDS011;68459;50.836;19.138;2023-03-15T15:57:04;3.63;;;0.85;;
74974;SDS011;68459;50.836;19.138;2023-03-15T16:00:12;5.22;;;1.20;;
74974;SDS011;68459;50.836;19.138;2023-03-15T16:03:20;4.93;;;1.02;;
74974;SDS011;68459;50.836;19.138;2023-03-15T16:06:24;3.53;;;0.98;;
74974;SDS011;68459;50.836;19.138;2023-03-15T16:09:29;4.53;;;1.30;;
74974;SDS011;68459;50.836;19.138;2023-03-15T16:12:38;8.37;;;3.00;;
74974;SDS011;68459;50.836;19.138;2023-03-15T16:15:42;6.10;;;1.67;;
74974;SDS011;68459;50.836;19.138;2023-03-15T16:18:46;4.95;;;1.25;;
74974;SDS011;68459;50.836;19.138;2023-03-15T16:21:50;5.00;;;1.70;;
74974;SDS011;68459;50.836;19.138;2023-03-15T16:24:56;8.75;;;2.00;;
74974;SDS011;68459;50.836;19.138;2023-03-15T16:28:04;7.18;;;1.60;;
74974;SDS011;68459;50.836;19.138;2023-03-15T16:31:08;6.43;;;1.88;;
74974;SDS011;68459;50.836;19.138;2023-03-15T16:34:14;4.80;;;1.83;;
74974;SDS011;68459;50.836;19.138;2023-03-15T16:37:21;7.80;;;2.15;;
74974;SDS011;68459;50.836;19.138;2023-03-15T16:40:28;7.38;;;2.53;;
74974;SDS011;68459;50.836;19.138;2023-03-15T16:43:37;5.70;;;2.50;;
74974;SDS011;68459;50.836;19.138;2023-03-15T16:46:41;5.97;;;2.50;;
74974;SDS011;68459;50.836;19.138;2023-03-15T16:49:45;6.50;;;2.50;;
74974;SDS011;68459;50.836;19.138;2023-03-15T16:52:51;8.13;;;2.70;;
74974;SDS011;68459;50.836;19.138;2023-03-15T16:55:58;9.63;;;2.88;;
74974;SDS011;68459;50.836;19.138;2023-03-15T16:59:04;11.45;;;3.38;;
74974;SDS011;68459;50.836;19.138;2023-03-15T17:02:13;9.98;;;3.22;;
74974;SDS011;68459;50.836;19.138;2023-03-15T17:05:20;10.82;;;2.88;;
74974;SDS011;68459;50.836;19.138;2023-03-15T17:08:26;10.15;;;3.13;;
74974;SDS011;68459;50.836;19.138;2023-03-15T17:11:30;14.35;;;4.53;;
74974;SDS011;68459;50.836;19.138;2023-03-15T17:14:35;10.17;;;3.50;;
74974;SDS011;68459;50.836;19.138;2023-03-15T17:17:39;11.05;;;3.42;;
74974;SDS011;68459;50.836;19.138;2023-03-15T17:20:44;10.18;;;3.40;;
74974;SDS011;68459;50.836;19.138;2023-03-15T17:23:51;11.97;;;3.43;;
74974;SDS011;68459;50.836;19.138;2023-03-15T17:26:55;9.00;;;3.05;;
74974;SDS011;68459;50.836;19.138;2023-03-15T17:30:01;9.60;;;2.83;;
74974;SDS011;68459;50.836;19.138;2023-03-15T17:33:16;9.27;;;2.97;;
74974;SDS011;68459;50.836;19.138;2023-03-15T17:36:20;9.55;;;2.75;;
74974;SDS011;68459;50.836;19.138;2023-03-15T17:39:27;8.95;;;2.92;;
74974;SDS011;68459;50.836;19.138;2023-03-15T17:42:31;11.52;;;3.38;;
74974;SDS011;68459;50.836;19.138;2023-03-15T17:45:36;14.50;;;3.40;;
74974;SDS011;68459;50.836;19.138;2023-03-15T17:48:40;14.00;;;3.83;;
74974;SDS011;68459;50.836;19.138;2023-03-15T17:51:44;17.10;;;4.28;;
74974;SDS011;68459;50.836;19.138;2023-03-15T17:54:48;17.00;;;4.50;;
74974;SDS011;68459;50.836;19.138;2023-03-15T17:57:52;12.18;;;3.90;;
74974;SDS011;68459;50.836;19.138;2023-03-15T18:00:58;12.05;;;4.40;;
74974;SDS011;68459;50.836;19.138;2023-03-15T18:04:03;9.55;;;3.85;;
74974;SDS011;68459;50.836;19.138;2023-03-15T18:07:08;9.32;;;3.40;;
74974;SDS011;68459;50.836;19.138;2023-03-15T18:10:13;11.95;;;4.47;;
74974;SDS011;68459;50.836;19.138;2023-03-15T18:13:20;15.15;;;4.80;;
74974;SDS011;68459;50.836;19.138;2023-03-15T18:16:26;9.93;;;5.13;;
74974;SDS011;68459;50.836;19.138;2023-03-15T18:19:30;14.00;;;5.35;;
74974;SDS011;68459;50.836;19.138;2023-03-15T18:22:35;12.90;;;5.38;;
74974;SDS011;68459;50.836;19.138;2023-03-15T18:25:41;24.33;;;6.63;;
74974;SDS011;68459;50.836;19.138;2023-03-15T18:28:46;15.07;;;5.93;;
74974;SDS011;68459;50.836;19.138;2023-03-15T18:31:51;18.95;;;7.65;;
74974;SDS011;68459;50.836;19.138;2023-03-15T18:34:55;20.25;;;8.23;;
74974;SDS011;68459;50.836;19.138;2023-03-15T18:38:00;21.45;;;7.63;;
74974;SDS011;68459;50.836;19.138;2023-03-15T18:41:08;17.20;;;6.72;;
74974;SDS011;68459;50.836;19.138;2023-03-15T18:44:21;16.17;;;5.38;;
74974;SDS011;68459;50.836;19.138;2023-03-15T18:47:27;13.50;;;5.17;;